createdAt,value
2024-05-09T00:00:35.595Z,1.67
2024-05-09T00:03:07.905Z,1.35
2024-05-09T00:05:35.660Z,1.63
2024-05-09T00:08:02.908Z,1.67
2024-05-09T00:10:36.019Z,1.25
2024-05-09T00:13:08.902Z,1.55
2024-05-09T00:15:36.598Z,1.50
2024-05-09T00:18:05.434Z,1.58
2024-05-09T00:20:38.184Z,1.27
2024-05-09T00:23:08.886Z,1.83
2024-05-09T00:25:36.785Z,1.20
2024-05-09T00:28:03.945Z,1.42
2024-05-09T00:30:34.691Z,1.70
2024-05-09T00:33:08.504Z,1.40
2024-05-09T00:35:36.979Z,1.38
2024-05-09T00:38:04.657Z,1.40
2024-05-09T00:40:39.982Z,1.95
2024-05-09T00:43:10.375Z,1.38
2024-05-09T00:45:37.358Z,1.75
2024-05-09T00:48:07.698Z,1.85
2024-05-09T00:50:38.010Z,1.60
2024-05-09T00:53:07.170Z,1.90
2024-05-09T00:55:35.510Z,1.70
2024-05-09T00:58:03.635Z,1.73
2024-05-09T01:00:37.931Z,1.60
2024-05-09T01:03:07.666Z,1.10
2024-05-09T01:05:35.521Z,1.42
2024-05-09T01:08:03.100Z,2.05
2024-05-09T01:10:34.570Z,1.50
2024-05-09T01:15:34.104Z,1.48
2024-05-09T01:18:09.401Z,1.38
2024-05-09T01:20:41.773Z,1.83
2024-05-09T01:23:11.963Z,1.38
2024-05-09T01:25:39.451Z,1.95
2024-05-09T01:28:06.694Z,1.50
2024-05-09T01:30:36.114Z,1.60
2024-05-09T01:33:09.544Z,1.48
2024-05-09T01:35:39.047Z,1.52
2024-05-09T01:38:06.683Z,1.58
2024-05-09T01:40:38.290Z,1.42
2024-05-09T01:43:11.431Z,1.67
2024-05-09T01:45:39.814Z,1.65
2024-05-09T01:48:07.840Z,1.63
2024-05-09T01:50:39.590Z,1.65
2024-05-09T01:53:10.471Z,1.63
2024-05-09T01:55:37.763Z,1.77
2024-05-09T01:58:04.806Z,1.80
2024-05-09T02:00:38.790Z,1.70
2024-05-09T02:03:10.340Z,1.52
2024-05-09T02:05:38.457Z,1.67
2024-05-09T02:08:06.641Z,1.75
2024-05-09T02:10:33.792Z,1.48
2024-05-09T02:13:01.046Z,1.55
2024-05-09T02:15:27.950Z,1.77
2024-05-09T02:17:55.336Z,1.70
2024-05-09T02:20:30.624Z,1.58
2024-05-09T02:23:05.002Z,1.52
2024-05-09T02:25:32.520Z,1.67
2024-05-09T02:27:59.608Z,1.20
2024-05-09T02:30:36.498Z,1.48
2024-05-09T02:33:08.076Z,1.48
2024-05-09T02:35:35.882Z,1.50
2024-05-09T02:38:03.163Z,1.70
2024-05-09T02:40:36.676Z,1.83
2024-05-09T02:43:06.637Z,1.48
2024-05-09T02:45:33.816Z,1.70
2024-05-09T02:48:01.471Z,1.80
2024-05-09T02:50:36.984Z,1.50
2024-05-09T02:53:07.148Z,1.60
2024-05-09T02:55:34.624Z,1.60
2024-05-09T02:58:01.471Z,1.58
2024-05-09T03:00:36.829Z,1.48
2024-05-09T03:03:08.567Z,2.00
2024-05-09T03:05:37.212Z,1.52
2024-05-09T03:08:04.632Z,1.30
2024-05-09T03:10:36.135Z,1.60
2024-05-09T03:13:14.792Z,2.80
2024-05-09T03:15:43.169Z,1.80
2024-05-09T03:18:10.966Z,1.88
2024-05-09T03:20:39.041Z,1.75
2024-05-09T03:23:10.176Z,1.52
2024-05-09T03:25:37.943Z,1.85
2024-05-09T03:28:05.184Z,1.70
2024-05-09T03:30:39.894Z,1.45
2024-05-09T03:33:19.989Z,1.65
2024-05-09T03:35:48.802Z,1.67
2024-05-09T03:38:16.342Z,1.42
2024-05-09T03:40:47.523Z,1.73
2024-05-09T03:43:14.940Z,2.03
2024-05-09T03:45:45.724Z,1.65
2024-05-09T03:48:13.201Z,1.90
2024-05-09T03:50:40.447Z,1.70
2024-05-09T03:53:10.734Z,2.15
2024-05-09T03:55:37.792Z,1.92
2024-05-09T03:58:04.929Z,1.60
2024-05-09T04:00:37.758Z,1.58
2024-05-09T04:03:10.482Z,1.73
2024-05-09T04:05:40.848Z,1.40
2024-05-09T04:08:09.117Z,1.77
2024-05-09T04:10:36.099Z,1.88
2024-05-09T04:13:04.093Z,1.85
2024-05-09T04:15:31.356Z,1.65
2024-05-09T04:17:58.474Z,1.42
2024-05-09T04:20:35.950Z,2.17
2024-05-09T04:23:15.320Z,2.30
2024-05-09T04:25:44.832Z,1.70
2024-05-09T04:28:12.936Z,2.15
2024-05-09T04:30:41.550Z,1.48
2024-05-09T04:33:14.032Z,1.70
2024-05-09T04:35:42.834Z,2.33
2024-05-09T04:38:10.394Z,2.03
2024-05-09T04:40:37.883Z,2.00
2024-05-09T04:43:06.392Z,1.83
2024-05-09T04:45:33.539Z,1.90
2024-05-09T04:48:01.026Z,1.50
2024-05-09T04:50:35.838Z,1.98
2024-05-09T04:53:07.019Z,2.28
2024-05-09T04:55:34.801Z,2.10
2024-05-09T04:58:01.847Z,2.72
2024-05-09T05:00:35.813Z,1.60
2024-05-09T05:03:10.605Z,1.85
2024-05-09T05:05:40.878Z,2.47
2024-05-09T05:08:15.670Z,2.85
2024-05-09T05:10:43.925Z,3.08
2024-05-09T05:13:22.708Z,2.67
2024-05-09T05:15:55.277Z,2.83
2024-05-09T05:18:22.847Z,3.25
2024-05-09T05:20:50.065Z,2.63
2024-05-09T05:23:20.418Z,2.70
2024-05-09T05:25:48.827Z,3.55
2024-05-09T05:28:16.678Z,2.85
2024-05-09T05:30:43.777Z,2.80
2024-05-09T05:33:12.085Z,2.95
2024-05-09T05:35:39.808Z,2.65
2024-05-09T05:38:08.128Z,2.22
2024-05-09T05:40:37.314Z,2.30
2024-05-09T05:43:06.183Z,2.50
2024-05-09T05:45:33.140Z,2.20
2024-05-09T05:48:03.024Z,2.65
2024-05-09T05:50:35.809Z,2.58
2024-05-09T05:53:09.573Z,1.90
2024-05-09T05:58:04.615Z,2.17
2024-05-09T06:00:38.271Z,1.98
2024-05-09T06:03:08.187Z,2.75
2024-05-09T06:05:36.537Z,2.25
2024-05-09T06:08:03.552Z,2.75
2024-05-09T06:10:37.737Z,2.20
2024-05-09T06:13:07.608Z,2.28
2024-05-09T06:15:34.523Z,2.20
2024-05-09T06:18:01.845Z,2.25
2024-05-09T06:20:35.622Z,2.35
2024-05-09T06:23:09.009Z,2.33
2024-05-09T06:25:36.624Z,2.22
2024-05-09T06:28:03.940Z,2.10
2024-05-09T06:30:38.678Z,2.45
2024-05-09T06:33:10.837Z,2.10
2024-05-09T06:35:39.686Z,2.50
2024-05-09T06:38:09.182Z,2.30
2024-05-09T06:40:39.535Z,2.03
2024-05-09T06:43:14.758Z,2.15
2024-05-09T06:45:42.858Z,2.55
2024-05-09T06:48:10.485Z,2.40
2024-05-09T06:50:39.356Z,2.75
2024-05-09T06:53:07.733Z,2.33
2024-05-09T06:55:34.761Z,2.10
2024-05-09T06:58:01.776Z,2.80
2024-05-09T07:00:35.752Z,2.47
2024-05-09T07:03:11.159Z,2.38
2024-05-09T07:05:39.143Z,3.15
2024-05-09T07:08:06.939Z,2.20
2024-05-09T07:10:36.365Z,2.30
2024-05-09T07:13:11.540Z,2.22
2024-05-09T07:15:39.334Z,2.25
2024-05-09T07:18:18.038Z,2.17
2024-05-09T07:20:46.428Z,2.50
2024-05-09T07:23:14.120Z,2.50
2024-05-09T07:25:41.920Z,2.42
2024-05-09T07:28:14.294Z,2.35
2024-05-09T07:33:08.405Z,2.30
2024-05-09T07:35:35.566Z,2.08
2024-05-09T07:38:02.658Z,1.95
2024-05-09T07:40:35.778Z,2.15
2024-05-09T07:43:14.180Z,1.88
2024-05-09T07:45:50.698Z,2.20
2024-05-09T07:52:37.255Z,2.03
2024-05-09T07:53:47.102Z,2.15
2024-05-09T07:56:18.356Z,2.00
2024-05-09T07:58:46.505Z,1.65
2024-05-09T08:01:13.565Z,1.88
2024-05-09T08:03:40.621Z,1.90
2024-05-09T08:06:07.907Z,1.50
2024-05-09T08:08:34.698Z,1.67
2024-05-09T08:11:02.835Z,1.80
2024-05-09T08:13:29.767Z,1.73
2024-05-09T08:15:56.671Z,1.38
2024-05-09T08:18:23.772Z,1.70
2024-05-09T08:20:51.483Z,1.75
2024-05-09T08:23:18.382Z,1.65
2024-05-09T08:25:45.156Z,1.85
2024-05-09T08:28:12.324Z,1.50
2024-05-09T08:30:39.436Z,1.92
2024-05-09T08:33:07.651Z,1.60
2024-05-09T08:35:35.907Z,1.70
2024-05-09T08:38:03.725Z,1.80
2024-05-09T08:40:36.089Z,1.90
2024-05-09T08:43:12.501Z,1.42
2024-05-09T08:45:43.939Z,1.50
2024-05-09T08:48:14.725Z,1.80
2024-05-09T08:50:43.673Z,1.70
2024-05-09T08:53:11.359Z,2.10
2024-05-09T08:55:41.967Z,2.00
2024-05-09T08:58:18.346Z,1.65
2024-05-09T09:00:46.734Z,1.50
2024-05-09T09:03:18.314Z,1.70
2024-05-09T09:05:58.446Z,1.50
2024-05-09T09:08:26.595Z,1.42
2024-05-09T09:10:57.210Z,1.50
2024-05-09T09:13:24.569Z,1.65
2024-05-09T09:15:58.452Z,1.80
2024-05-09T09:18:30.802Z,2.05
2024-05-09T09:20:58.444Z,1.98
2024-05-09T09:23:31.114Z,2.20
2024-05-09T09:26:01.552Z,1.90
2024-05-09T09:28:30.598Z,2.00
2024-05-09T09:31:08.469Z,1.80
2024-05-09T09:33:36.154Z,2.35
2024-05-09T09:36:08.335Z,2.38
2024-05-09T09:38:38.060Z,1.63
2024-05-09T09:41:08.215Z,1.60
2024-05-09T09:43:40.728Z,1.90
2024-05-09T09:46:12.249Z,1.55
2024-05-09T09:48:40.645Z,1.70
2024-05-09T09:51:08.351Z,1.88
2024-05-09T09:53:36.404Z,1.73
2024-05-09T09:56:05.540Z,1.73
2024-05-09T09:58:34.560Z,1.58
2024-05-09T10:01:01.532Z,1.85
2024-05-09T10:03:28.707Z,1.83
2024-05-09T10:05:56.862Z,1.70
2024-05-09T10:08:24.520Z,1.55
2024-05-09T10:10:51.791Z,1.48
2024-05-09T10:13:20.058Z,1.63
2024-05-09T10:15:52.648Z,2.30
2024-05-09T10:18:28.193Z,2.00
2024-05-09T10:20:57.442Z,1.60
2024-05-09T10:23:36.277Z,2.47
2024-05-09T10:26:05.331Z,2.03
2024-05-09T10:28:35.616Z,2.00
2024-05-09T10:31:14.763Z,1.60
2024-05-09T10:33:50.360Z,2.00
2024-05-09T10:36:22.959Z,1.85
2024-05-09T10:38:50.821Z,2.00
2024-05-09T10:41:18.841Z,1.85
2024-05-09T10:43:46.440Z,1.40
2024-05-09T10:46:14.661Z,1.98
2024-05-09T10:48:45.360Z,1.30
2024-05-09T10:51:13.646Z,1.67
2024-05-09T10:53:42.265Z,1.52
2024-05-09T10:56:09.664Z,1.60
2024-05-09T10:58:36.614Z,1.17
2024-05-09T11:01:06.703Z,1.83
2024-05-09T11:03:34.901Z,1.40
2024-05-09T11:06:02.458Z,1.83
2024-05-09T11:08:31.579Z,1.80
2024-05-09T11:10:59.581Z,1.40
2024-05-09T11:13:37.468Z,1.95
2024-05-09T11:16:06.290Z,1.67
2024-05-09T11:18:37.856Z,1.65
2024-05-09T11:21:12.287Z,1.73
2024-05-09T11:23:39.587Z,1.63
2024-05-09T11:26:07.345Z,1.70
2024-05-09T11:28:34.142Z,1.88
2024-05-09T11:31:09.165Z,2.05
2024-05-09T11:33:41.254Z,1.60
2024-05-09T11:36:08.674Z,1.40
2024-05-09T11:38:35.508Z,1.33
2024-05-09T11:41:03.121Z,1.90
2024-05-09T11:43:30.027Z,1.60
2024-05-09T11:45:57.876Z,1.40
2024-05-09T11:48:26.173Z,1.40
2024-05-09T11:50:54.403Z,1.50
2024-05-09T11:53:21.265Z,1.38
2024-05-09T11:55:48.171Z,1.23
2024-05-09T11:58:17.508Z,1.35
2024-05-09T12:00:45.250Z,1.13
2024-05-09T12:03:12.293Z,1.60
2024-05-09T12:05:39.257Z,1.00
2024-05-09T12:08:06.945Z,1.30
2024-05-09T12:10:35.891Z,1.25
2024-05-09T12:13:05.673Z,1.30
2024-05-09T12:15:36.815Z,1.58
2024-05-09T12:18:05.030Z,1.30
2024-05-09T12:20:37.532Z,1.38
2024-05-09T12:23:07.167Z,1.33
2024-05-09T12:25:34.697Z,1.15
2024-05-09T12:28:01.800Z,1.10
2024-05-09T12:30:36.218Z,1.30
2024-05-09T12:33:13.738Z,1.33
2024-05-09T12:35:44.193Z,1.27
2024-05-09T12:38:13.977Z,1.20
2024-05-09T12:40:40.836Z,1.30
2024-05-09T12:43:09.101Z,1.27
2024-05-09T12:45:37.722Z,1.23
2024-05-09T12:48:07.487Z,1.10
2024-05-09T12:50:35.058Z,1.23
2024-05-09T12:53:03.749Z,1.00
2024-05-09T12:55:40.254Z,1.20
2024-05-09T12:58:15.610Z,1.10
2024-05-09T13:00:42.712Z,1.10
2024-05-09T13:03:09.828Z,0.90
2024-05-09T13:05:36.847Z,1.20
2024-05-09T13:08:04.466Z,1.23
2024-05-09T13:10:33.103Z,1.27
2024-05-09T13:13:01.881Z,1.10
2024-05-09T13:15:30.762Z,0.88
2024-05-09T13:18:01.554Z,1.38
2024-05-09T13:23:03.969Z,2.10
2024-05-09T13:25:31.070Z,4.07
2024-05-09T13:27:58.173Z,3.35
2024-05-09T13:30:34.368Z,2.60
2024-05-09T13:33:06.964Z,1.00
2024-05-09T13:35:35.647Z,1.90
2024-05-09T13:38:04.444Z,2.08
2024-05-09T13:40:34.705Z,1.08
2024-05-09T13:43:04.553Z,1.42
2024-05-09T13:45:31.924Z,0.98
2024-05-09T13:47:59.059Z,1.40
2024-05-09T13:50:33.785Z,1.45
2024-05-09T13:53:05.612Z,1.10
2024-05-09T13:55:33.511Z,1.90
2024-05-09T13:58:00.910Z,1.83
2024-05-09T14:00:41.405Z,1.30
2024-05-09T14:03:14.596Z,1.15
2024-05-09T14:05:41.946Z,1.33
2024-05-09T14:08:09.202Z,2.28
2024-05-09T14:10:36.394Z,1.67
2024-05-09T14:13:03.337Z,2.20
2024-05-09T14:15:30.326Z,1.48
2024-05-09T14:17:57.369Z,2.20
2024-05-09T14:20:30.873Z,2.03
2024-05-09T14:23:02.047Z,1.67
2024-05-09T14:25:31.698Z,2.85
2024-05-09T14:27:58.783Z,1.52
2024-05-09T14:30:34.398Z,3.90
2024-05-09T14:33:05.277Z,2.80
2024-05-09T14:35:32.917Z,1.88
2024-05-09T14:37:59.804Z,5.38
2024-05-09T14:40:37.025Z,2.38
2024-05-09T14:43:09.978Z,1.90
2024-05-09T14:45:37.003Z,1.98
2024-05-09T14:48:04.407Z,1.40
2024-05-09T14:50:36.739Z,1.70
2024-05-09T14:53:07.594Z,1.38
2024-05-09T14:55:37.446Z,1.40
2024-05-09T14:58:09.634Z,1.30
2024-05-09T15:00:46.416Z,1.40
2024-05-09T15:03:17.534Z,1.17
2024-05-09T15:05:45.120Z,1.27
2024-05-09T15:08:12.058Z,1.20
2024-05-09T15:10:39.173Z,1.08
2024-05-09T15:13:08.103Z,1.10
2024-05-09T15:15:36.986Z,1.30
2024-05-09T15:18:05.157Z,1.35
2024-05-09T15:20:36.030Z,1.30
2024-05-09T15:25:32.901Z,1.27
2024-05-09T15:27:59.820Z,1.40
2024-05-09T15:30:31.142Z,1.20
2024-05-09T15:33:00.969Z,1.10
2024-05-09T15:35:28.213Z,1.20
2024-05-09T15:37:55.435Z,1.42
2024-05-09T15:40:31.412Z,1.10
2024-05-09T15:43:06.063Z,1.20
2024-05-09T15:45:34.554Z,1.10
2024-05-09T15:48:02.615Z,0.95
2024-05-09T15:50:36.971Z,1.00
2024-05-09T15:53:08.516Z,1.02
2024-05-09T15:55:36.295Z,1.50
2024-05-09T15:58:04.485Z,1.48
2024-05-09T16:00:37.590Z,2.17
2024-05-09T16:03:12.627Z,1.85
2024-05-09T16:05:41.168Z,1.50
2024-05-09T16:08:08.497Z,1.35
2024-05-09T16:10:36.730Z,1.40
2024-05-09T16:13:04.879Z,2.08
2024-05-09T16:15:32.044Z,1.45
2024-05-09T16:17:59.473Z,2.00
2024-05-09T16:20:34.882Z,2.58
2024-05-09T16:23:07.216Z,1.50
2024-05-09T16:25:34.131Z,1.52
2024-05-09T16:28:01.598Z,1.50
2024-05-09T16:30:34.509Z,1.73
2024-05-09T16:33:04.191Z,2.00
2024-05-09T16:35:32.172Z,2.30
2024-05-09T16:38:01.142Z,1.60
2024-05-09T16:40:36.170Z,1.30
2024-05-09T16:43:06.710Z,3.00
2024-05-09T16:45:34.152Z,2.38
2024-05-09T16:48:01.995Z,1.63
2024-05-09T16:50:33.552Z,1.65
2024-05-09T16:53:06.551Z,1.20
2024-05-09T16:55:34.646Z,1.20
2024-05-09T16:58:02.155Z,1.55
2024-05-09T17:00:38.689Z,1.30
2024-05-09T17:03:11.481Z,1.70
2024-05-09T17:05:39.538Z,1.38
2024-05-09T17:08:07.387Z,1.65
2024-05-09T17:10:35.823Z,1.30
2024-05-09T17:13:04.435Z,1.50
2024-05-09T17:15:32.941Z,1.00
2024-05-09T17:18:00.676Z,1.15
2024-05-09T17:20:33.121Z,0.90
2024-05-09T17:23:03.860Z,1.17
2024-05-09T17:25:30.859Z,1.00
2024-05-09T17:28:05.221Z,1.00
2024-05-09T17:30:36.427Z,1.13
2024-05-09T17:33:06.949Z,0.90
2024-05-09T17:35:34.737Z,1.23
2024-05-09T17:38:01.816Z,1.48
2024-05-09T17:40:33.630Z,1.05
2024-05-09T17:43:04.439Z,1.00
2024-05-09T17:45:32.223Z,1.00
2024-05-09T17:47:59.916Z,1.10
2024-05-09T17:50:34.739Z,1.10
2024-05-09T17:53:04.252Z,1.02
2024-05-09T17:55:31.210Z,1.10
2024-05-09T17:57:59.391Z,1.25
2024-05-09T18:00:37.365Z,1.25
2024-05-09T18:03:08.069Z,1.00
2024-05-09T18:05:36.665Z,1.10
2024-05-09T18:08:04.567Z,0.90
2024-05-09T18:10:36.795Z,1.33
2024-05-09T18:13:07.236Z,1.02
2024-05-09T18:15:34.693Z,0.90
2024-05-09T18:18:02.486Z,0.82
2024-05-09T18:20:38.127Z,1.00
2024-05-09T18:23:10.818Z,1.02
2024-05-09T18:25:43.635Z,1.00
2024-05-09T18:28:10.664Z,0.88
2024-05-09T18:30:38.036Z,1.08
2024-05-09T18:33:07.772Z,1.10
2024-05-09T18:35:36.412Z,0.98
2024-05-09T18:38:04.916Z,1.33
2024-05-09T18:40:35.702Z,1.20
2024-05-09T18:43:07.183Z,1.10
2024-05-09T18:45:36.887Z,0.90
2024-05-09T18:48:05.346Z,1.20
2024-05-09T18:50:37.236Z,1.13
2024-05-09T18:53:06.969Z,1.10
2024-05-09T18:55:34.014Z,1.08
2024-05-09T18:58:01.154Z,1.20
2024-05-09T19:00:34.625Z,1.13
2024-05-09T19:03:08.089Z,1.48
2024-05-09T19:05:36.442Z,1.48
2024-05-09T19:08:03.809Z,1.50
2024-05-09T19:10:34.592Z,2.00
2024-05-09T19:13:06.873Z,1.60
2024-05-09T19:15:39.692Z,1.23
2024-05-09T19:18:07.748Z,1.90
2024-05-09T19:20:36.390Z,1.05
2024-05-09T19:23:05.465Z,1.40
2024-05-09T19:25:33.667Z,1.38
2024-05-09T19:28:03.281Z,1.90
2024-05-09T19:30:38.207Z,1.52
2024-05-09T19:33:09.302Z,1.33
2024-05-09T19:35:36.998Z,1.60
2024-05-09T19:38:04.914Z,1.80
2024-05-09T19:40:33.802Z,1.45
2024-05-09T19:43:03.107Z,1.70
2024-05-09T19:45:32.173Z,1.33
2024-05-09T19:47:59.439Z,1.13
2024-05-09T19:50:32.857Z,1.60
2024-05-09T19:53:08.477Z,1.80
2024-05-09T19:55:35.465Z,1.60
2024-05-09T19:58:05.358Z,1.63
2024-05-09T20:00:36.928Z,1.70
2024-05-09T20:03:06.579Z,1.88
2024-05-09T20:05:34.182Z,3.17
2024-05-09T20:08:01.275Z,2.70
2024-05-09T20:10:32.518Z,2.72
2024-05-09T20:13:01.863Z,3.10
2024-05-09T20:15:29.229Z,3.00
2024-05-09T20:17:56.393Z,2.70
2024-05-09T20:20:33.277Z,2.40
2024-05-09T20:23:06.330Z,2.75
2024-05-09T20:25:33.656Z,2.33
2024-05-09T20:28:00.954Z,2.40
2024-05-09T20:30:32.354Z,1.92
2024-05-09T20:33:02.987Z,2.40
2024-05-09T20:35:32.448Z,1.88
2024-05-09T20:38:01.295Z,2.22
2024-05-09T20:40:33.244Z,2.15
2024-05-09T20:43:04.016Z,2.38
2024-05-09T20:45:31.141Z,2.38
2024-05-09T20:47:58.324Z,2.47
2024-05-09T20:50:35.650Z,2.28
2024-05-09T20:53:14.604Z,2.13
2024-05-09T20:55:43.974Z,2.30
2024-05-09T20:58:11.854Z,2.33
2024-05-09T21:00:42.754Z,2.30
2024-05-09T21:03:13.486Z,2.25
2024-05-09T21:05:44.299Z,2.03
2024-05-09T21:08:11.388Z,2.10
2024-05-09T21:10:38.496Z,2.22
2024-05-09T21:13:06.631Z,2.53
2024-05-09T21:15:34.979Z,2.13
2024-05-09T21:18:02.345Z,2.22
2024-05-09T21:20:32.650Z,2.20
2024-05-09T21:23:03.980Z,2.00
2024-05-09T21:25:31.328Z,1.70
2024-05-09T21:27:58.616Z,2.25
2024-05-09T21:30:38.247Z,1.60
2024-05-09T21:33:10.231Z,1.73
2024-05-09T21:35:38.813Z,1.70
2024-05-09T21:38:07.095Z,1.80
2024-05-09T21:40:35.894Z,1.55
2024-05-09T21:43:04.717Z,1.80
2024-05-09T21:45:31.930Z,1.85
2024-05-09T21:47:59.135Z,1.98
2024-05-09T21:50:32.036Z,2.53
2024-05-09T21:53:06.555Z,2.60
2024-05-09T21:55:33.771Z,2.22
2024-05-09T21:58:00.779Z,2.22
2024-05-09T22:00:35.439Z,2.00
2024-05-09T22:03:05.582Z,2.20
2024-05-09T22:05:32.973Z,2.05
2024-05-09T22:08:00.127Z,1.52
2024-05-09T22:10:33.264Z,2.30
2024-05-09T22:13:06.209Z,1.60
2024-05-09T22:15:39.615Z,1.75
2024-05-09T22:18:08.605Z,1.80
2024-05-09T22:20:38.909Z,2.00
2024-05-09T22:23:07.624Z,1.73
2024-05-09T22:25:37.985Z,1.70
2024-05-09T22:28:05.861Z,2.05
2024-05-09T22:30:37.294Z,1.95
2024-05-09T22:33:12.991Z,1.77
2024-05-09T22:35:41.145Z,1.65
2024-05-09T22:38:08.623Z,1.63
2024-05-09T22:40:46.584Z,1.58
2024-05-09T22:43:24.464Z,2.10
2024-05-09T22:45:55.925Z,2.00
2024-05-09T22:48:24.514Z,1.70
2024-05-09T22:50:52.048Z,1.35
2024-05-09T22:53:18.987Z,1.50
2024-05-09T22:55:45.859Z,1.98
2024-05-09T22:58:12.722Z,1.85
2024-05-09T23:00:40.179Z,1.60
2024-05-09T23:03:07.160Z,1.83
2024-05-09T23:05:34.359Z,1.58
2024-05-09T23:08:02.272Z,1.65
2024-05-09T23:10:35.684Z,1.60
2024-05-09T23:13:06.002Z,1.48
2024-05-09T23:15:33.128Z,1.73
2024-05-09T23:18:00.192Z,1.80
2024-05-09T23:20:36.073Z,2.20
2024-05-09T23:23:07.089Z,2.17
2024-05-09T23:25:34.549Z,1.83
2024-05-09T23:28:01.479Z,2.40
2024-05-09T23:30:36.250Z,2.10
2024-05-09T23:33:06.735Z,1.92
2024-05-09T23:35:33.753Z,2.40
2024-05-09T23:38:00.711Z,1.70
2024-05-09T23:40:37.455Z,2.10
2024-05-09T23:43:10.397Z,2.33
2024-05-09T23:45:37.755Z,2.10
2024-05-09T23:48:05.335Z,1.92
2024-05-09T23:50:36.469Z,1.70
2024-05-09T23:53:06.980Z,1.83
2024-05-09T23:55:35.105Z,2.10
2024-05-09T23:58:02.062Z,1.80
